Time;durP1;ratioP1;P1;durP2;ratioP2;P2;SDS_P1;SDS_P2;PMS_P1;PMS_P2;Temp;Humidity;BMP_temperature;BMP_pressure;BME280_temperature;BME280_humidity;BME280_pressure;Samples;Min_cycle;Max_cycle;Signal;HPM_P1;HPM_P2
2023/04/10 00:00:23;;;;;;;9.63;5.90;;;;;;;;;;6278418;22;20483;-77
2023/04/10 00:02:49;;;;;;;8.43;5.55;;;;;;;;;;6278864;22;20010;-77
2023/04/10 00:05:15;;;;;;;10.00;6.07;;;;;;;;;;6276060;22;20007;-77
2023/04/10 00:07:40;;;;;;;9.60;5.78;;;;;;;;;;6277839;22;20063;-77
2023/04/10 00:10:06;;;;;;;8.88;5.20;;;;;;;;;;6277582;22;20453;-77
2023/04/10 00:12:31;;;;;;;8.52;5.50;;;;;;;;;;6278385;22;20500;-77
2023/04/10 00:14:57;;;;;;;9.80;6.05;;;;;;;;;;6277181;22;20112;-77
2023/04/10 00:17:22;;;;;;;8.35;5.35;;;;;;;;;;6276037;22;20011;-77
2023/04/10 00:19:47;;;;;;;10.32;6.03;;;;;;;;;;6279001;22;20037;-77
2023/04/10 00:22:13;;;;;;;9.27;5.70;;;;;;;;;;6273973;22;20019;-77
2023/04/10 00:24:38;;;;;;;9.35;5.60;;;;;;;;;;6277145;22;19999;-77
2023/04/10 00:27:04;;;;;;;11.07;5.57;;;;;;;;;;6277978;22;20033;-77
2023/04/10 00:29:29;;;;;;;7.70;5.10;;;;;;;;;;6278027;22;20007;-77
2023/04/10 00:31:55;;;;;;;8.48;5.18;;;;;;;;;;6276837;22;20012;-76
2023/04/10 00:34:20;;;;;;;7.90;5.30;;;;;;;;;;6277348;22;20055;-77
2023/04/10 00:36:48;;;;;;;8.63;5.20;;;;;;;;;;6276841;22;20035;-77
2023/04/10 00:39:13;;;;;;;8.65;5.80;;;;;;;;;;6280096;22;20070;-77
2023/04/10 00:41:39;;;;;;;8.38;5.20;;;;;;;;;;6278278;22;20010;-77
2023/04/10 00:44:04;;;;;;;8.00;5.00;;;;;;;;;;6278506;22;20009;-76
2023/04/10 00:46:31;;;;;;;9.27;5.15;;;;;;;;;;6279723;22;20007;-77
2023/04/10 00:48:57;;;;;;;7.57;5.03;;;;;;;;;;6278198;22;20003;-76
2023/04/10 00:51:22;;;;;;;9.10;5.30;;;;;;;;;;6277546;22;20004;-77
2023/04/10 00:53:53;;;;;;;8.95;5.38;;;;;;;;;;6276613;22;20422;-76
2023/04/10 00:56:20;;;;;;;8.18;5.22;;;;;;;;;;6279069;22;20011;-77
2023/04/10 00:58:46;;;;;;;8.80;5.07;;;;;;;;;;6274459;22;20003;-77
2023/04/10 01:01:11;;;;;;;8.95;5.35;;;;;;;;;;6274540;22;20448;-78
2023/04/10 01:03:38;;;;;;;8.60;5.25;;;;;;;;;;6279293;22;19999;-77
2023/04/10 01:06:45;;;;;;;7.60;4.90;;;;;;;;;;6273397;22;20162;-77
2023/04/10 01:09:23;;;;;;;8.00;4.90;;;;;;;;;;6156471;23;20012;-76
2023/04/10 01:12:33;;;;;;;7.43;4.97;;;;;;;;;;6158573;23;20012;-77
2023/04/10 01:15:04;;;;;;;9.38;5.60;;;;;;;;;;6262623;22;20011;-77
2023/04/10 01:17:36;;;;;;;8.65;5.40;;;;;;;;;;6277237;22;20004;-77
2023/04/10 01:20:25;;;;;;;7.60;5.00;;;;;;;;;;6277344;22;20037;-76
2023/04/10 01:23:20;;;;;;;7.78;4.90;;;;;;;;;;6280214;22;20003;-77
2023/04/10 01:25:51;;;;;;;8.60;5.32;;;;;;;;;;6278456;22;20380;-77
2023/04/10 01:28:35;;;;;;;7.78;5.43;;;;;;;;;;6280021;22;20417;-77
2023/04/10 01:31:02;;;;;;;8.00;4.97;;;;;;;;;;6277968;22;20081;-77
2023/04/10 01:33:39;;;;;;;9.32;5.20;;;;;;;;;;6280041;22;20034;-77
2023/04/10 01:36:07;;;;;;;8.38;5.40;;;;;;;;;;6277829;22;20055;-77
2023/04/10 01:38:34;;;;;;;8.52;5.32;;;;;;;;;;6271509;22;20003;-77
2023/04/10 01:41:01;;;;;;;8.93;5.93;;;;;;;;;;6274880;22;20461;-77
2023/04/10 01:43:28;;;;;;;8.35;5.15;;;;;;;;;;6276989;22;20003;-78
2023/04/10 01:45:56;;;;;;;9.07;5.80;;;;;;;;;;6276413;22;20007;-77
2023/04/10 01:48:21;;;;;;;9.00;5.47;;;;;;;;;;6273049;22;20389;-77
2023/04/10 01:50:47;;;;;;;9.55;5.90;;;;;;;;;;6279614;22;20008;-77
2023/04/10 01:53:14;;;;;;;10.45;5.65;;;;;;;;;;6274292;22;20011;-77
2023/04/10 01:55:40;;;;;;;7.85;4.93;;;;;;;;;;6275827;22;20012;-77
2023/04/10 01:58:06;;;;;;;8.40;5.47;;;;;;;;;;6276083;22;20006;-77
2023/04/10 02:00:44;;;;;;;8.07;5.15;;;;;;;;;;6276814;22;20082;-77
2023/04/10 02:03:10;;;;;;;9.35;5.25;;;;;;;;;;6277219;22;20003;-77
2023/04/10 02:06:07;;;;;;;7.90;5.35;;;;;;;;;;6278489;22;20464;-78
2023/04/10 02:08:37;;;;;;;8.35;5.43;;;;;;;;;;6248976;22;20090;-77
2023/04/10 02:11:11;;;;;;;8.88;5.35;;;;;;;;;;6278430;22;20007;-77
2023/04/10 02:13:39;;;;;;;7.72;5.05;;;;;;;;;;6278434;22;20000;-77
2023/04/10 02:16:07;;;;;;;9.52;5.40;;;;;;;;;;6278032;22;20049;-77
2023/04/10 02:18:34;;;;;;;8.30;5.60;;;;;;;;;;6276239;22;20012;-76
2023/04/10 02:21:01;;;;;;;8.88;5.35;;;;;;;;;;6275329;22;20031;-77
2023/04/10 02:23:26;;;;;;;8.50;5.50;;;;;;;;;;6277077;22;20341;-76
2023/04/10 02:25:52;;;;;;;8.93;5.22;;;;;;;;;;6276918;22;20031;-76
2023/04/10 02:28:17;;;;;;;9.95;5.55;;;;;;;;;;6278279;22;20015;-77
2023/04/10 02:30:43;;;;;;;9.82;5.78;;;;;;;;;;6277822;22;20047;-77
2023/04/10 02:33:08;;;;;;;9.27;4.97;;;;;;;;;;6275302;22;20078;-77
2023/04/10 02:35:35;;;;;;;8.63;5.50;;;;;;;;;;6275798;22;20011;-78
2023/04/10 02:38:00;;;;;;;8.35;5.50;;;;;;;;;;6273624;22;20003;-77
2023/04/10 02:40:26;;;;;;;8.80;5.43;;;;;;;;;;6276163;22;20034;-77
2023/04/10 02:42:51;;;;;;;7.80;5.13;;;;;;;;;;6277321;22;20010;-77
2023/04/10 02:45:16;;;;;;;7.95;5.35;;;;;;;;;;6278247;22;20430;-76
2023/04/10 02:47:42;;;;;;;8.45;5.18;;;;;;;;;;6276810;22;20107;-77
2023/04/10 02:50:08;;;;;;;8.85;5.57;;;;;;;;;;6279857;22;20060;-77
2023/04/10 02:52:34;;;;;;;8.65;5.45;;;;;;;;;;6277594;22;20035;-77
2023/04/10 02:54:59;;;;;;;9.45;5.82;;;;;;;;;;6276942;22;20027;-77
2023/04/10 02:57:26;;;;;;;8.60;5.47;;;;;;;;;;6278230;22;20011;-77
2023/04/10 02:59:52;;;;;;;8.10;5.20;;;;;;;;;;6276928;22;20004;-77
2023/04/10 03:02:17;;;;;;;8.68;5.50;;;;;;;;;;6277013;22;20003;-76
2023/04/10 03:04:43;;;;;;;8.85;5.70;;;;;;;;;;6278234;22;19996;-77
2023/04/10 03:07:08;;;;;;;9.63;5.78;;;;;;;;;;6276843;22;20385;-76
2023/04/10 03:09:33;;;;;;;8.95;5.47;;;;;;;;;;6275983;22;19999;-76
2023/04/10 03:11:59;;;;;;;8.02;5.13;;;;;;;;;;6275462;22;20015;-76
2023/04/10 03:14:25;;;;;;;8.95;5.70;;;;;;;;;;6277622;22;20003;-76
2023/04/10 03:16:50;;;;;;;8.60;5.72;;;;;;;;;;6278512;22;20013;-76
2023/04/10 03:19:15;;;;;;;10.18;6.05;;;;;;;;;;6273528;22;20003;-76
2023/04/10 03:21:41;;;;;;;7.88;5.35;;;;;;;;;;6277431;22;20011;-77
2023/04/10 03:24:06;;;;;;;8.65;5.75;;;;;;;;;;6277738;22;20004;-76
2023/04/10 03:26:31;;;;;;;9.95;5.90;;;;;;;;;;6275916;22;20004;-78
2023/04/10 03:28:57;;;;;;;10.10;5.97;;;;;;;;;;6275617;22;20377;-77
2023/04/10 03:31:22;;;;;;;9.30;5.30;;;;;;;;;;6276069;22;20000;-78
2023/04/10 03:33:48;;;;;;;9.95;5.93;;;;;;;;;;6273884;22;20465;-76
2023/04/10 03:36:13;;;;;;;8.43;5.35;;;;;;;;;;6278834;22;20011;-78
2023/04/10 03:38:39;;;;;;;8.85;5.60;;;;;;;;;;6279840;22;20038;-79
2023/04/10 03:41:05;;;;;;;9.55;6.07;;;;;;;;;;6278509;22;20051;-78
2023/04/10 03:43:30;;;;;;;7.90;5.25;;;;;;;;;;6282304;22;20487;-79
2023/04/10 03:45:56;;;;;;;8.10;5.63;;;;;;;;;;6255118;22;20012;-78
2023/04/10 03:48:21;;;;;;;9.82;5.68;;;;;;;;;;6280370;22;20029;-78
2023/04/10 03:50:46;;;;;;;9.30;5.88;;;;;;;;;;6280242;22;20004;-78
2023/04/10 03:53:12;;;;;;;9.02;5.38;;;;;;;;;;6279000;22;20034;-78
2023/04/10 03:55:37;;;;;;;10.23;5.65;;;;;;;;;;6283144;22;20031;-78
2023/04/10 03:58:04;;;;;;;10.38;5.65;;;;;;;;;;6281239;22;20008;-78
2023/04/10 04:00:29;;;;;;;9.70;6.22;;;;;;;;;;6281782;22;20003;-78
2023/04/10 04:02:55;;;;;;;9.10;5.20;;;;;;;;;;6279479;22;20030;-79
2023/04/10 04:05:20;;;;;;;9.18;5.60;;;;;;;;;;6282570;22;20020;-79
2023/04/10 04:07:45;;;;;;;8.05;5.55;;;;;;;;;;6281145;22;20031;-78
2023/04/10 04:10:11;;;;;;;9.45;5.68;;;;;;;;;;6279587;22;20008;-79
2023/04/10 04:12:36;;;;;;;9.20;5.65;;;;;;;;;;6280005;22;20010;-77
2023/04/10 04:15:02;;;;;;;9.23;5.85;;;;;;;;;;6278266;22;20006;-77
2023/04/10 04:17:27;;;;;;;7.15;4.70;;;;;;;;;;6278656;22;20337;-77
2023/04/10 04:19:52;;;;;;;8.85;5.10;;;;;;;;;;6278931;22;20003;-77
2023/04/10 04:22:19;;;;;;;8.95;5.65;;;;;;;;;;6281021;22;20011;-77
2023/04/10 04:24:45;;;;;;;8.90;5.40;;;;;;;;;;6278610;22;20015;-77
2023/04/10 04:27:10;;;;;;;9.48;5.60;;;;;;;;;;6279197;22;20003;-77
2023/04/10 04:29:35;;;;;;;9.35;5.60;;;;;;;;;;6279185;22;20074;-77
2023/04/10 04:32:01;;;;;;;8.07;5.10;;;;;;;;;;6280076;22;20347;-76
2023/04/10 04:34:26;;;;;;;9.75;6.07;;;;;;;;;;6279861;22;20021;-77
2023/04/10 04:36:51;;;;;;;8.23;5.38;;;;;;;;;;6278451;22;20006;-77
2023/04/10 04:39:17;;;;;;;8.20;5.13;;;;;;;;;;6278825;22;20000;-77
2023/04/10 04:41:42;;;;;;;8.35;5.35;;;;;;;;;;6280913;22;20007;-78
2023/04/10 04:44:08;;;;;;;8.55;5.20;;;;;;;;;;6280045;22;20020;-77
2023/04/10 04:46:34;;;;;;;9.15;5.38;;;;;;;;;;6279275;22;20019;-77
2023/04/10 04:48:59;;;;;;;9.18;5.50;;;;;;;;;;6277120;22;20329;-77
2023/04/10 04:51:25;;;;;;;9.73;5.95;;;;;;;;;;6278960;22;20337;-77
2023/04/10 04:53:50;;;;;;;8.20;5.40;;;;;;;;;;6278842;22;20011;-76
2023/04/10 04:56:15;;;;;;;7.78;5.13;;;;;;;;;;6277184;22;20449;-77
2023/04/10 04:58:41;;;;;;;8.93;5.43;;;;;;;;;;6278332;22;20072;-77
2023/04/10 05:01:07;;;;;;;8.77;5.15;;;;;;;;;;6276294;22;20066;-76
2023/04/10 05:03:32;;;;;;;9.35;5.72;;;;;;;;;;6278810;22;20430;-77
2023/04/10 05:05:58;;;;;;;8.65;5.22;;;;;;;;;;6276030;22;20216;-77
2023/04/10 05:08:23;;;;;;;9.48;5.43;;;;;;;;;;6277026;22;20030;-77
2023/04/10 05:10:49;;;;;;;9.55;5.30;;;;;;;;;;6279553;22;20011;-77
2023/04/10 05:13:16;;;;;;;8.23;5.20;;;;;;;;;;6281259;22;20008;-76
2023/04/10 05:15:44;;;;;;;8.05;4.93;;;;;;;;;;6278812;22;20064;-77
2023/04/10 05:18:10;;;;;;;9.20;5.35;;;;;;;;;;6279019;22;20023;-77
2023/04/10 05:20:35;;;;;;;10.65;5.50;;;;;;;;;;6281388;22;20008;-76
2023/04/10 05:23:01;;;;;;;8.70;5.32;;;;;;;;;;6281477;22;20014;-77
2023/04/10 05:25:26;;;;;;;9.65;5.72;;;;;;;;;;6280596;22;20000;-76
2023/04/10 05:27:52;;;;;;;8.07;4.97;;;;;;;;;;6279130;22;20488;-77
2023/04/10 05:30:17;;;;;;;7.68;5.25;;;;;;;;;;6279178;22;20039;-76
2023/04/10 05:32:42;;;;;;;9.50;5.93;;;;;;;;;;6253773;22;20110;-77
2023/04/10 05:35:08;;;;;;;8.02;5.45;;;;;;;;;;6281385;22;20011;-77
2023/04/10 05:37:33;;;;;;;9.45;5.65;;;;;;;;;;6280034;22;20022;-76
2023/04/10 05:39:59;;;;;;;10.07;6.00;;;;;;;;;;6253383;22;20073;-76
2023/04/10 05:42:24;;;;;;;9.23;4.97;;;;;;;;;;6278832;22;20035;-76
2023/04/10 05:44:51;;;;;;;9.27;5.60;;;;;;;;;;6281123;22;20079;-77
2023/04/10 05:47:16;;;;;;;7.57;4.93;;;;;;;;;;6279429;22;20387;-77
2023/04/10 05:49:42;;;;;;;8.07;5.30;;;;;;;;;;6280079;22;20042;-76
2023/04/10 05:52:07;;;;;;;8.20;4.82;;;;;;;;;;6277181;22;20012;-77
2023/04/10 05:54:33;;;;;;;7.97;4.85;;;;;;;;;;6278376;22;20011;-77
2023/04/10 05:56:58;;;;;;;9.35;4.75;;;;;;;;;;6278415;22;20065;-76
2023/04/10 05:59:23;;;;;;;8.82;5.40;;;;;;;;;;6278722;22;20426;-76
2023/04/10 06:01:49;;;;;;;7.55;4.97;;;;;;;;;;6278486;22;20046;-77
2023/04/10 06:04:15;;;;;;;9.57;5.30;;;;;;;;;;6278097;22;20004;-77
2023/04/10 06:06:40;;;;;;;8.02;5.22;;;;;;;;;;6276384;22;20008;-76
2023/04/10 06:09:06;;;;;;;9.02;5.13;;;;;;;;;;6278164;22;20010;-76
2023/04/10 06:11:31;;;;;;;8.30;5.32;;;;;;;;;;6277237;22;20000;-76
2023/04/10 06:13:56;;;;;;;8.05;5.43;;;;;;;;;;6276765;22;20008;-77
2023/04/10 06:16:22;;;;;;;8.00;5.45;;;;;;;;;;6275457;22;20333;-77
2023/04/10 06:18:47;;;;;;;8.13;5.20;;;;;;;;;;6277287;22;20007;-76
2023/04/10 06:21:13;;;;;;;8.90;5.35;;;;;;;;;;6274836;22;20006;-79
2023/04/10 06:23:39;;;;;;;8.60;5.45;;;;;;;;;;6275609;22;20008;-78
2023/04/10 06:26:05;;;;;;;10.00;5.28;;;;;;;;;;6278476;22;20430;-78
2023/04/10 06:28:30;;;;;;;10.23;6.07;;;;;;;;;;6279197;22;20007;-78
2023/04/10 06:30:56;;;;;;;8.98;5.32;;;;;;;;;;6279701;22;20003;-78
2023/04/10 06:33:21;;;;;;;9.65;5.93;;;;;;;;;;6276816;22;20095;-78
2023/04/10 06:35:47;;;;;;;8.05;5.32;;;;;;;;;;6278401;22;20014;-78
2023/04/10 06:38:12;;;;;;;8.52;5.13;;;;;;;;;;6280415;22;20503;-78
2023/04/10 06:40:37;;;;;;;8.90;5.20;;;;;;;;;;6279980;22;20010;-78
2023/04/10 06:43:03;;;;;;;8.18;5.30;;;;;;;;;;6277791;22;20004;-77
2023/04/10 06:45:28;;;;;;;10.50;5.72;;;;;;;;;;6278620;22;20329;-78
2023/04/10 06:47:54;;;;;;;8.98;5.43;;;;;;;;;;6276421;22;20014;-77
2023/04/10 06:50:19;;;;;;;8.48;5.50;;;;;;;;;;6277307;22;20014;-78
2023/04/10 06:52:46;;;;;;;9.30;5.72;;;;;;;;;;6279452;22;20422;-78
2023/04/10 06:55:11;;;;;;;8.57;5.22;;;;;;;;;;6277608;22;20035;-78
2023/04/10 06:57:38;;;;;;;8.57;5.57;;;;;;;;;;6277295;22;20390;-78
2023/04/10 07:00:04;;;;;;;9.57;5.85;;;;;;;;;;6277754;22;20008;-79
2023/04/10 07:02:29;;;;;;;8.30;5.50;;;;;;;;;;6279476;22;20003;-78
2023/04/10 07:04:55;;;;;;;9.60;5.47;;;;;;;;;;6279391;22;20053;-78
2023/04/10 07:07:21;;;;;;;10.38;6.15;;;;;;;;;;6278986;22;20027;-78
2023/04/10 07:09:46;;;;;;;8.63;5.32;;;;;;;;;;6278702;22;20007;-78
2023/04/10 07:12:12;;;;;;;9.80;5.60;;;;;;;;;;6280306;22;20011;-77
2023/04/10 07:14:37;;;;;;;8.13;5.32;;;;;;;;;;6279408;22;20341;-77
2023/04/10 07:17:03;;;;;;;10.05;6.10;;;;;;;;;;6278511;22;20585;-78
2023/04/10 07:19:28;;;;;;;10.20;5.93;;;;;;;;;;6280894;22;20011;-78
2023/04/10 07:21:53;;;;;;;8.75;5.80;;;;;;;;;;6277727;22;20434;-78
2023/04/10 07:24:21;;;;;;;9.32;5.75;;;;;;;;;;6279106;22;20004;-78
2023/04/10 07:26:47;;;;;;;8.10;5.38;;;;;;;;;;6278608;22;20205;-78
2023/04/10 07:29:13;;;;;;;9.85;5.88;;;;;;;;;;6280222;22;20082;-78
2023/04/10 07:31:38;;;;;;;9.07;5.78;;;;;;;;;;6281490;22;20006;-77
2023/04/10 07:34:04;;;;;;;8.82;5.57;;;;;;;;;;6280303;22;20011;-78
2023/04/10 07:36:30;;;;;;;8.50;5.47;;;;;;;;;;6280456;22;20061;-78
2023/04/10 07:38:56;;;;;;;9.43;5.82;;;;;;;;;;6280311;22;20011;-78
2023/04/10 07:41:22;;;;;;;9.52;6.10;;;;;;;;;;6280599;22;20004;-78
2023/04/10 07:43:48;;;;;;;9.68;6.03;;;;;;;;;;6277929;22;20000;-78
2023/04/10 07:46:14;;;;;;;9.23;5.72;;;;;;;;;;6278729;22;20019;-78
2023/04/10 07:48:39;;;;;;;8.82;5.40;;;;;;;;;;6282866;22;19999;-78
2023/04/10 07:51:08;;;;;;;10.18;5.90;;;;;;;;;;6280127;22;20011;-78
2023/04/10 07:53:33;;;;;;;10.82;6.13;;;;;;;;;;6279786;22;20008;-78
2023/04/10 07:55:59;;;;;;;10.63;6.00;;;;;;;;;;6280809;22;20342;-78
2023/04/10 07:58:24;;;;;;;9.75;6.28;;;;;;;;;;6280454;22;20014;-78
2023/04/10 08:00:50;;;;;;;11.75;6.68;;;;;;;;;;6281019;22;20000;-78
2023/04/10 08:03:15;;;;;;;8.88;5.95;;;;;;;;;;6282212;22;20003;-77
2023/04/10 08:05:41;;;;;;;9.05;6.18;;;;;;;;;;6280547;22;20333;-79
2023/04/10 08:08:06;;;;;;;9.02;5.95;;;;;;;;;;6280163;22;20003;-78
2023/04/10 08:10:31;;;;;;;10.48;6.43;;;;;;;;;;6279856;22;20126;-78
2023/04/10 08:12:57;;;;;;;9.32;6.07;;;;;;;;;;6280648;22;20007;-79
2023/04/10 08:15:22;;;;;;;9.45;5.88;;;;;;;;;;6279803;22;20007;-77
2023/04/10 08:17:47;;;;;;;8.35;5.47;;;;;;;;;;6277846;22;20014;-77
2023/04/10 08:20:13;;;;;;;8.95;5.53;;;;;;;;;;6278341;22;20003;-77
2023/04/10 08:22:38;;;;;;;9.50;5.60;;;;;;;;;;6278265;22;20007;-77
2023/04/10 08:25:04;;;;;;;8.15;5.47;;;;;;;;;;6278288;22;20326;-77
2023/04/10 08:27:30;;;;;;;8.10;5.43;;;;;;;;;;6277129;22;20016;-77
2023/04/10 08:29:55;;;;;;;9.10;5.97;;;;;;;;;;6276983;22;20061;-77
2023/04/10 08:32:21;;;;;;;8.05;5.32;;;;;;;;;;6276700;22;20038;-77
2023/04/10 08:34:46;;;;;;;10.68;5.80;;;;;;;;;;6276431;22;20350;-78
2023/04/10 08:37:14;;;;;;;8.63;5.20;;;;;;;;;;6278044;22;20008;-76
2023/04/10 08:39:39;;;;;;;7.90;5.30;;;;;;;;;;6275928;22;20023;-77
2023/04/10 08:42:06;;;;;;;8.98;5.25;;;;;;;;;;6280050;22;20011;-78
2023/04/10 08:44:31;;;;;;;9.18;5.88;;;;;;;;;;6283077;22;20468;-77
2023/04/10 08:47:01;;;;;;;7.90;5.30;;;;;;;;;;6279073;22;20004;-77
2023/04/10 08:49:52;;;;;;;10.07;6.22;;;;;;;;;;6279519;22;20343;-77
2023/04/10 08:52:24;;;;;;;9.27;6.05;;;;;;;;;;6278414;22;20004;-76
2023/04/10 08:55:01;;;;;;;7.95;5.15;;;;;;;;;;6280581;22;20004;-77
2023/04/10 08:57:27;;;;;;;7.05;5.03;;;;;;;;;;6278167;22;20003;-76
2023/04/10 08:59:53;;;;;;;8.63;5.47;;;;;;;;;;6279391;22;19999;-76
2023/04/10 09:02:26;;;;;;;8.52;5.55;;;;;;;;;;6279834;22;20004;-77
2023/04/10 09:04:54;;;;;;;8.70;5.50;;;;;;;;;;6277930;22;19991;-75
2023/04/10 09:07:20;;;;;;;8.38;5.70;;;;;;;;;;6278071;22;20011;-77
2023/04/10 09:09:45;;;;;;;8.52;5.28;;;;;;;;;;6280786;22;20000;-77
2023/04/10 09:12:12;;;;;;;9.13;5.70;;;;;;;;;;6277054;22;20007;-77
2023/04/10 09:14:39;;;;;;;9.27;5.97;;;;;;;;;;6276447;22;20319;-78
2023/04/10 09:17:23;;;;;;;8.57;5.38;;;;;;;;;;6278661;22;20390;-77
2023/04/10 09:19:54;;;;;;;9.15;5.72;;;;;;;;;;6280620;22;20315;-77
2023/04/10 09:22:31;;;;;;;8.82;5.72;;;;;;;;;;6282953;22;20059;-77
2023/04/10 09:24:58;;;;;;;10.07;5.57;;;;;;;;;;6281998;22;20020;-76
2023/04/10 09:27:36;;;;;;;8.27;5.65;;;;;;;;;;6282554;22;20003;-77
2023/04/10 09:30:05;;;;;;;8.43;5.68;;;;;;;;;;6282980;22;20011;-78
2023/04/10 09:32:47;;;;;;;8.52;5.72;;;;;;;;;;6279577;22;20004;-76
2023/04/10 09:35:15;;;;;;;8.90;5.47;;;;;;;;;;6279788;22;20008;-77
2023/04/10 09:37:43;;;;;;;10.30;5.82;;;;;;;;;;6282073;22;20004;-77
2023/04/10 09:40:19;;;;;;;10.20;6.20;;;;;;;;;;6256405;22;20090;-77
2023/04/10 09:42:45;;;;;;;8.10;5.20;;;;;;;;;;6284529;22;20007;-76
2023/04/10 09:45:10;;;;;;;8.45;5.40;;;;;;;;;;6280560;22;20363;-77
2023/04/10 09:47:36;;;;;;;10.48;5.93;;;;;;;;;;6279902;22;20003;-77
2023/04/10 09:50:02;;;;;;;9.23;5.90;;;;;;;;;;6281302;22;20333;-77
2023/04/10 09:52:31;;;;;;;9.48;5.70;;;;;;;;;;6281726;22;20075;-77
2023/04/10 09:55:01;;;;;;;8.25;5.55;;;;;;;;;;6283264;22;20057;-77
2023/04/10 09:57:29;;;;;;;8.95;5.38;;;;;;;;;;6280049;22;20003;-77
2023/04/10 09:59:56;;;;;;;9.73;6.10;;;;;;;;;;6280904;22;20307;-77
2023/04/10 10:02:24;;;;;;;8.15;5.88;;;;;;;;;;6275522;22;20311;-77
2023/04/10 10:04:50;;;;;;;8.60;5.43;;;;;;;;;;6276812;22;20144;-77
2023/04/10 10:07:18;;;;;;;8.30;5.60;;;;;;;;;;6276965;22;20007;-77
2023/04/10 10:09:46;;;;;;;8.95;5.60;;;;;;;;;;6280847;22;20003;-77
2023/04/10 10:12:15;;;;;;;8.43;5.80;;;;;;;;;;6281874;22;19999;-76
2023/04/10 10:14:54;;;;;;;7.90;5.28;;;;;;;;;;6282015;22;20019;-77
2023/04/10 10:17:23;;;;;;;8.82;5.78;;;;;;;;;;6283418;22;20007;-76
2023/04/10 10:19:56;;;;;;;9.07;5.55;;;;;;;;;;6280432;22;20003;-77
2023/04/10 10:22:24;;;;;;;10.93;5.22;;;;;;;;;;6278968;22;20011;-77
2023/04/10 10:24:55;;;;;;;10.00;6.25;;;;;;;;;;6279263;22;19999;-77
2023/04/10 10:27:22;;;;;;;8.50;5.72;;;;;;;;;;6279614;22;20117;-77
2023/04/10 10:29:48;;;;;;;9.07;5.47;;;;;;;;;;6278046;22;20003;-77
2023/04/10 10:32:16;;;;;;;8.85;5.55;;;;;;;;;;6279558;22;19999;-77
2023/04/10 10:34:43;;;;;;;8.90;5.40;;;;;;;;;;6277423;22;20034;-77
2023/04/10 10:37:10;;;;;;;8.50;5.80;;;;;;;;;;6279146;22;20004;-76
2023/04/10 10:40:17;;;;;;;7.85;5.38;;;;;;;;;;6281229;22;19999;-77
2023/04/10 10:43:04;;;;;;;9.10;5.95;;;;;;;;;;6279554;22;20031;-78
2023/04/10 10:45:40;;;;;;;7.97;5.20;;;;;;;;;;6276525;22;20023;-77
2023/04/10 10:48:06;;;;;;;10.57;5.30;;;;;;;;;;6270503;22;20007;-77
2023/04/10 10:51:10;;;;;;;7.75;5.18;;;;;;;;;;6277367;22;19999;-78
2023/04/10 10:53:40;;;;;;;8.65;5.25;;;;;;;;;;6188317;23;20009;-77
2023/04/10 10:56:17;;;;;;;7.93;5.32;;;;;;;;;;6267827;22;20015;-77
2023/04/10 10:58:49;;;;;;;8.52;4.97;;;;;;;;;;6280890;22;20007;-77
2023/04/10 11:01:15;;;;;;;7.85;5.28;;;;;;;;;;6282412;22;20011;-77
2023/04/10 11:03:47;;;;;;;7.28;5.10;;;;;;;;;;6284158;22;20003;-77
2023/04/10 11:06:18;;;;;;;7.88;4.95;;;;;;;;;;6280143;22;20380;-77
2023/04/10 11:08:46;;;;;;;7.15;4.82;;;;;;;;;;6277463;22;20004;-77
2023/04/10 11:11:39;;;;;;;;;;;;;;;;;;;;;
2023/04/10 11:14:05;;;;;;;6.45;4.05;;;;;;;;;;6280797;22;20462;-77
2023/04/10 11:16:34;;;;;;;9.10;4.70;;;;;;;;;;6279955;22;20007;-77
2023/04/10 11:19:00;;;;;;;7.35;4.38;;;;;;;;;;6281618;22;20019;-77
2023/04/10 11:21:27;;;;;;;7.18;4.18;;;;;;;;;;6282816;22;20414;-77
2023/04/10 11:23:53;;;;;;;6.50;4.50;;;;;;;;;;6280786;22;20011;-77
2023/04/10 11:26:34;;;;;;;6.30;4.28;;;;;;;;;;6279636;22;20012;-77
2023/04/10 11:29:04;;;;;;;5.97;4.00;;;;;;;;;;6281997;22;20012;-77
2023/04/10 11:31:30;;;;;;;6.13;4.20;;;;;;;;;;6283233;22;20338;-78
2023/04/10 11:33:56;;;;;;;5.18;3.53;;;;;;;;;;6281546;22;20476;-77
2023/04/10 11:36:22;;;;;;;5.80;3.70;;;;;;;;;;6281605;22;20003;-77
2023/04/10 11:38:54;;;;;;;5.90;3.90;;;;;;;;;;6279769;22;20027;-78
2023/04/10 11:41:19;;;;;;;5.40;3.63;;;;;;;;;;6282041;22;20070;-77
2023/04/10 11:43:50;;;;;;;5.53;3.67;;;;;;;;;;6283361;22;20011;-77
2023/04/10 11:46:16;;;;;;;4.90;3.33;;;;;;;;;;6283252;22;20010;-78
2023/04/10 11:48:41;;;;;;;5.18;3.42;;;;;;;;;;6282010;22;19999;-76
2023/04/10 11:51:11;;;;;;;6.18;3.97;;;;;;;;;;6278453;22;20003;-77
2023/04/10 11:53:38;;;;;;;5.47;3.65;;;;;;;;;;6257619;22;20007;-77
2023/04/10 11:56:06;;;;;;;6.80;3.25;;;;;;;;;;6283921;22;20007;-77
2023/04/10 11:58:31;;;;;;;6.38;3.28;;;;;;;;;;6280770;22;20008;-77
2023/04/10 12:01:02;;;;;;;6.03;3.70;;;;;;;;;;6283773;22;20004;-78
2023/04/10 12:03:44;;;;;;;4.55;3.40;;;;;;;;;;6281218;22;20007;-77
2023/04/10 12:06:12;;;;;;;5.10;3.30;;;;;;;;;;6282347;22;20029;-78
2023/04/10 12:08:44;;;;;;;6.20;3.15;;;;;;;;;;6281247;22;20389;-77
2023/04/10 12:11:10;;;;;;;4.77;2.97;;;;;;;;;;6282723;22;20014;-77
2023/04/10 12:13:37;;;;;;;4.38;3.03;;;;;;;;;;6272073;22;20224;-78
2023/04/10 12:16:05;;;;;;;4.82;3.03;;;;;;;;;;6270643;22;20052;-77
2023/04/10 12:18:31;;;;;;;7.15;2.90;;;;;;;;;;6273549;22;20061;-77
2023/04/10 12:20:58;;;;;;;4.55;3.28;;;;;;;;;;6275877;22;20038;-78
2023/04/10 12:23:24;;;;;;;5.18;3.08;;;;;;;;;;6278503;22;20011;-77
2023/04/10 12:25:50;;;;;;;4.35;3.20;;;;;;;;;;6277379;22;20456;-77
2023/04/10 12:28:20;;;;;;;4.75;3.03;;;;;;;;;;6278471;22;20008;-78
2023/04/10 12:30:51;;;;;;;4.82;2.97;;;;;;;;;;6279509;22;20375;-77
2023/04/10 12:33:24;;;;;;;4.68;3.13;;;;;;;;;;6271962;22;20013;-78
2023/04/10 12:35:51;;;;;;;6.57;2.75;;;;;;;;;;6274946;22;20008;-77
2023/04/10 12:38:41;;;;;;;5.00;3.05;;;;;;;;;;6273684;22;20070;-78
2023/04/10 12:41:10;;;;;;;5.68;2.90;;;;;;;;;;6273519;22;20003;-77
2023/04/10 12:43:36;;;;;;;4.53;3.20;;;;;;;;;;6274100;22;20376;-78
2023/04/10 12:46:02;;;;;;;4.60;2.90;;;;;;;;;;6270782;22;20449;-78
2023/04/10 12:48:28;;;;;;;4.72;2.70;;;;;;;;;;6276843;22;20523;-78
2023/04/10 12:50:53;;;;;;;4.25;2.90;;;;;;;;;;6274251;22;20035;-78
2023/04/10 12:53:19;;;;;;;4.78;3.00;;;;;;;;;;6274002;22;20087;-78
2023/04/10 12:56:05;;;;;;;5.57;2.92;;;;;;;;;;6274929;22;20003;-78
2023/04/10 12:58:31;;;;;;;3.85;2.67;;;;;;;;;;6274659;22;20007;-78
2023/04/10 13:01:08;;;;;;;4.13;2.70;;;;;;;;;;6276072;22;20418;-77
2023/04/10 13:03:35;;;;;;;4.15;2.70;;;;;;;;;;6275083;22;20003;-78
2023/04/10 13:06:01;;;;;;;4.80;2.97;;;;;;;;;;6274370;22;20288;-78
2023/04/10 13:08:26;;;;;;;4.28;3.00;;;;;;;;;;6274684;22;20385;-77
2023/04/10 13:10:53;;;;;;;5.78;2.72;;;;;;;;;;6275835;22;20011;-78
2023/04/10 13:13:18;;;;;;;5.25;3.00;;;;;;;;;;6275270;22;20023;-77
2023/04/10 13:15:44;;;;;;;4.72;2.75;;;;;;;;;;6274542;22;20018;-77
2023/04/10 13:18:09;;;;;;;4.07;2.72;;;;;;;;;;6274618;22;20011;-78
2023/04/10 13:20:39;;;;;;;5.50;2.85;;;;;;;;;;6277440;22;20015;-77
2023/04/10 13:23:06;;;;;;;4.82;2.83;;;;;;;;;;6277725;22;20408;-77
2023/04/10 13:25:33;;;;;;;5.53;2.67;;;;;;;;;;6277384;22;20046;-77
2023/04/10 13:28:00;;;;;;;4.82;3.15;;;;;;;;;;6279700;22;20007;-78
2023/04/10 13:30:26;;;;;;;5.03;2.80;;;;;;;;;;6276263;22;20342;-78
2023/04/10 13:32:52;;;;;;;4.25;2.75;;;;;;;;;;6274389;22;20009;-77
2023/04/10 13:35:17;;;;;;;4.10;2.83;;;;;;;;;;6268102;22;20094;-78
2023/04/10 13:37:42;;;;;;;4.53;3.00;;;;;;;;;;6270991;22;20027;-78
2023/04/10 13:40:08;;;;;;;5.90;2.88;;;;;;;;;;6274117;22;20012;-78
2023/04/10 13:42:34;;;;;;;3.80;2.55;;;;;;;;;;6271563;22;20014;-77
2023/04/10 13:45:00;;;;;;;4.15;2.70;;;;;;;;;;6274127;22;20474;-79
2023/04/10 13:47:25;;;;;;;4.43;2.95;;;;;;;;;;6273514;22;20007;-78
2023/04/10 13:49:51;;;;;;;3.97;2.72;;;;;;;;;;6275252;22;20452;-77
2023/04/10 13:52:16;;;;;;;4.43;2.92;;;;;;;;;;6271747;22;20014;-78
2023/04/10 13:54:41;;;;;;;4.25;2.65;;;;;;;;;;6277509;22;20497;-78
2023/04/10 13:57:06;;;;;;;3.58;2.55;;;;;;;;;;6272881;22;20422;-77
2023/04/10 13:59:32;;;;;;;4.03;2.60;;;;;;;;;;6271925;22;20018;-78
2023/04/10 14:01:57;;;;;;;6.38;3.30;;;;;;;;;;6268121;22;20083;-78
2023/04/10 14:04:22;;;;;;;4.00;2.50;;;;;;;;;;6272898;22;20300;-77
2023/04/10 14:06:49;;;;;;;4.10;2.50;;;;;;;;;;6271903;22;20319;-78
2023/04/10 14:09:14;;;;;;;4.97;2.53;;;;;;;;;;6270455;22;20007;-78
2023/04/10 14:11:40;;;;;;;4.60;2.70;;;;;;;;;;6272671;22;20299;-78
2023/04/10 14:14:05;;;;;;;4.50;2.72;;;;;;;;;;6273480;22;20018;-77
2023/04/10 14:16:30;;;;;;;3.45;2.42;;;;;;;;;;6275625;22;20030;-78
2023/04/10 14:18:56;;;;;;;3.80;2.47;;;;;;;;;;6274135;22;20448;-78
2023/04/10 14:21:21;;;;;;;3.33;2.40;;;;;;;;;;6271454;22;20008;-77
2023/04/10 14:23:47;;;;;;;4.82;2.63;;;;;;;;;;6270955;22;20018;-78
2023/04/10 14:26:12;;;;;;;4.30;2.75;;;;;;;;;;6273558;22;20007;-77
2023/04/10 14:28:37;;;;;;;3.70;2.30;;;;;;;;;;6274005;22;20214;-78
2023/04/10 14:31:03;;;;;;;3.83;2.50;;;;;;;;;;6269562;22;20007;-76
2023/04/10 14:33:29;;;;;;;3.95;2.80;;;;;;;;;;6274279;22;20011;-78
2023/04/10 14:35:54;;;;;;;4.10;2.80;;;;;;;;;;6267755;22;20469;-77
2023/04/10 14:38:20;;;;;;;5.35;3.00;;;;;;;;;;6267142;22;20015;-78
2023/04/10 14:40:48;;;;;;;4.80;2.75;;;;;;;;;;6264711;22;20012;-77
2023/04/10 14:43:14;;;;;;;4.35;3.00;;;;;;;;;;6265894;22;20058;-77
2023/04/10 14:45:39;;;;;;;4.25;2.88;;;;;;;;;;6265207;22;20019;-77